Aviation Digital Data Service (ADDS)

Output produced by METARs form (0018 UTC 17 July 2019)
found at http://www.aviationweather.gov/metar/data/
 
FKKD 170000Z 14002KT 9999 BKN016 FEW020CB 25/25 Q1013 NOSIG
TAF FKKD 162300Z 1700/1806 VRB03KT 9999 SCT013 FEW016CB 
     TEMPO 1704/1707 2000 BR
       
FKKR 162000Z 30003KT 9999 TS FEW020 FEW026CB 29/24 Q1012 NOSIG
FKYS 170000Z 26005KT 220V290 8000 BKN006 22/22 Q1018 NOSIG
TAF FKYS 162300Z 1700/1724 VRB03KT 9999 BKN006 
     TEMPO 1704/1707 3000 BR 
     BECMG 1708/1710 BKN016 
     PROB30 1715/1720 TS BKN013 FEW020CB